Badlands Natl Park, South Dakota
Current Conditions -  °F | °C
As of 4:55 PM on Friday 28 Nov 2014 (Local Time) from KPHP Reporting Station
Clear Clear  
Wind Chill: 37°   Ceiling: Unl
Heat Index: 42°   Visibility: 10mi
Dew Point: 30°   Wind: 8mph
Humidity: 62%   Direction: 80°E
Pressure: 29.55"   Gusts: NA
Location:  43.78°N, 102.25°W
Report Text: KPHP 282355Z AUTO 08007KT 10SM CLR 06/M01 A2955 RMK AO2 SLP017 T00561011 10172 20050 56010
Loading
Personal Weather Stations






























Interactive Weather Map New forecast layout! Learn more

10-Day Weather Forecast

Advertisements
Track Severe Weather on mobile